Time;durP1;ratioP1;P1;durP2;ratioP2;P2;SDS_P1;SDS_P2;PMS_P1;PMS_P2;Temp;Humidity;BMP_temperature;BMP_pressure;BME280_temperature;BME280_humidity;BME280_pressure;Samples;Min_cycle;Max_cycle;Signal;HPM_P1;HPM_P2
2023/09/20 00:04:09;;;;;;;0.10;0.10;;;;;;;22.11;100.00;100791.63;10377586;28;20464;-80
2023/09/20 00:09:13;;;;;;;0.40;0.22;;;;;;;22.34;100.00;100798.06;10388293;28;20124;-78
2023/09/20 00:14:16;;;;;;;0.98;0.68;;;;;;;22.29;100.00;100789.47;10378695;28;20053;-81
2023/09/20 00:19:18;;;;;;;0.00;0.00;;;;;;;22.18;100.00;100787.97;10393429;28;20408;-79
2023/09/20 00:24:20;;;;;;;0.47;0.32;;;;;;;22.15;100.00;100793.28;10394959;28;20058;-79
2023/09/20 00:29:24;;;;;;;0.20;0.20;;;;;;;21.91;100.00;100799.13;10377033;28;20576;-80
2023/09/20 00:34:26;;;;;;;1.85;1.20;;;;;;;22.35;100.00;100786.69;10376647;28;20050;-80
2023/09/20 00:39:30;;;;;;;0.90;0.47;;;;;;;22.40;100.00;100787.47;10355177;28;20042;-79
2023/09/20 00:44:31;;;;;;;0.00;0.00;;;;;;;22.32;100.00;100789.38;10392224;28;20049;-80
2023/09/20 00:49:34;;;;;;;0.25;0.25;;;;;;;22.23;100.00;100784.38;10374997;28;20045;-80
2023/09/20 00:54:36;;;;;;;0.20;0.10;;;;;;;21.99;100.00;100781.44;10387790;28;20057;-80
2023/09/20 00:59:39;;;;;;;0.10;0.10;;;;;;;22.31;100.00;100785.03;10385971;28;20460;-79
2023/09/20 01:04:42;;;;;;;0.13;0.08;;;;;;;22.05;100.00;100780.41;10374951;28;20046;-80
2023/09/20 01:09:47;;;;;;;0.25;0.25;;;;;;;22.13;100.00;100786.34;10358496;28;20052;-79
2023/09/20 01:14:49;;;;;;;0.20;0.20;;;;;;;22.28;100.00;100785.13;10366564;28;20050;-80
2023/09/20 01:19:51;;;;;;;0.35;0.13;;;;;;;21.74;100.00;100784.63;10388095;28;20053;-80
2023/09/20 01:24:55;;;;;;;0.32;0.20;;;;;;;22.12;100.00;100782.88;10391317;28;20052;-81
2023/09/20 01:29:57;;;;;;;0.25;0.13;;;;;;;22.15;100.00;100787.16;10372176;28;20054;-78
2023/09/20 01:34:58;;;;;;;0.57;0.30;;;;;;;22.05;100.00;100783.91;10374350;28;20052;-78
2023/09/20 01:40:00;;;;;;;0.00;0.00;;;;;;;22.15;100.00;100781.94;10373831;28;20046;-82
2023/09/20 01:45:06;;;;;;;0.20;0.20;;;;;;;21.82;100.00;100782.69;10373560;28;20054;-79
2023/09/20 01:50:08;;;;;;;0.00;0.00;;;;;;;21.63;100.00;100781.41;10373341;28;20045;-79
2023/09/20 01:55:14;;;;;;;0.47;0.32;;;;;;;21.29;100.00;100775.09;10356974;28;20085;-80
2023/09/20 02:00:22;;;;;;;0.00;0.00;;;;;;;21.22;100.00;100763.84;10372440;28;20061;-80
2023/09/20 02:05:25;;;;;;;0.35;0.10;;;;;;;21.26;100.00;100766.41;10372715;28;20049;-80
2023/09/20 02:10:27;;;;;;;0.00;0.00;;;;;;;21.38;100.00;100758.28;10380143;28;20467;-79
2023/09/20 02:15:30;;;;;;;0.08;0.08;;;;;;;21.30;100.00;100749.72;10388716;28;20078;-79
2023/09/20 02:20:36;;;;;;;0.10;0.10;;;;;;;20.84;100.00;100749.75;10386027;28;20042;-80
2023/09/20 02:25:40;;;;;;;0.13;0.13;;;;;;;20.77;100.00;100750.78;10341924;28;20053;-79
2023/09/20 02:30:42;;;;;;;0.28;0.10;;;;;;;21.16;100.00;100729.06;10381648;28;20141;-80
2023/09/20 02:35:45;;;;;;;3.60;0.40;;;;;;;20.97;100.00;100742.53;10365333;28;20136;-79
2023/09/20 02:40:49;;;;;;;1.20;1.05;;;;;;;20.95;100.00;100746.09;10386264;28;20137;-79
2023/09/20 02:45:52;;;;;;;0.00;0.00;;;;;;;21.19;100.00;100736.84;10368155;28;20104;-79
2023/09/20 02:50:53;;;;;;;0.52;0.52;;;;;;;21.26;100.00;100725.34;10369888;28;20062;-79
2023/09/20 02:55:55;;;;;;;0.90;0.30;;;;;;;20.85;100.00;100730.56;10390677;28;20085;-79
2023/09/20 03:00:57;;;;;;;0.90;0.47;;;;;;;21.34;100.00;100719.94;10381945;28;20125;-79
2023/09/20 03:06:07;;;;;;;0.77;0.30;;;;;;;21.46;100.00;100703.97;10381745;28;20493;-79
2023/09/20 03:11:10;;;;;;;1.25;0.52;;;;;;;21.45;100.00;100702.22;10366454;28;20050;-79
2023/09/20 03:16:19;;;;;;;0.08;0.05;;;;;;;21.11;100.00;100697.72;10394076;28;20135;-79
2023/09/20 03:21:23;;;;;;;0.00;0.00;;;;;;;21.29;100.00;100696.47;10395654;28;20069;-80
2023/09/20 03:26:25;;;;;;;0.45;0.35;;;;;;;20.95;100.00;100693.72;10396230;28;20049;-79
2023/09/20 03:31:27;;;;;;;0.03;0.03;;;;;;;21.06;100.00;100689.09;10378251;28;20050;-79
2023/09/20 03:36:29;;;;;;;0.40;0.20;;;;;;;21.17;100.00;100696.72;10393308;28;20462;-79
2023/09/20 03:41:31;;;;;;;0.00;0.00;;;;;;;20.89;100.00;100682.44;10361773;28;20566;-78
2023/09/20 03:46:33;;;;;;;0.90;0.40;;;;;;;20.80;100.00;100687.00;10361881;28;20050;-79
2023/09/20 03:51:35;;;;;;;0.30;0.10;;;;;;;20.85;100.00;100693.88;10368171;28;20092;-80
2023/09/20 03:56:37;;;;;;;0.00;0.00;;;;;;;21.20;100.00;100687.03;10378112;28;20042;-79
2023/09/20 04:01:39;;;;;;;0.15;0.00;;;;;;;21.07;100.00;100691.69;10393867;28;20049;-79
2023/09/20 04:06:41;;;;;;;6.50;0.60;;;;;;;21.46;100.00;100685.63;10377016;28;20417;-78
2023/09/20 04:11:42;;;;;;;0.43;0.20;;;;;;;21.16;100.00;100688.03;10377745;28;20042;-79
2023/09/20 04:16:44;;;;;;;0.10;0.10;;;;;;;21.33;100.00;100678.94;10369302;28;20050;-80
2023/09/20 04:21:46;;;;;;;0.50;0.25;;;;;;;20.94;100.00;100679.75;10375899;28;20038;-79
2023/09/20 04:26:47;;;;;;;0.00;0.00;;;;;;;20.95;100.00;100670.16;10345155;28;20053;-79
2023/09/20 04:31:49;;;;;;;0.38;0.38;;;;;;;21.37;100.00;100662.22;10389680;28;20053;-79
2023/09/20 04:36:54;;;;;;;0.00;0.00;;;;;;;21.13;100.00;100664.50;10376878;28;20049;-80
2023/09/20 04:41:56;;;;;;;0.00;0.00;;;;;;;21.20;100.00;100666.09;10376458;28;20489;-79
2023/09/20 04:46:58;;;;;;;0.00;0.00;;;;;;;21.52;100.00;100664.50;10372158;28;20054;-79
2023/09/20 04:52:01;;;;;;;0.30;0.10;;;;;;;21.08;100.00;100650.66;10360399;28;20046;-78
2023/09/20 04:57:04;;;;;;;0.32;0.20;;;;;;;21.37;100.00;100659.59;10387529;28;20048;-79
2023/09/20 05:02:07;;;;;;;0.05;0.03;;;;;;;21.27;100.00;100660.69;10374842;28;20050;-79
2023/09/20 05:07:11;;;;;;;0.80;0.10;;;;;;;21.08;100.00;100664.59;10389526;28;20054;-81
2023/09/20 05:12:14;;;;;;;1.65;0.90;;;;;;;21.27;100.00;100676.41;10387518;28;20049;-81
2023/09/20 05:17:16;;;;;;;0.45;0.30;;;;;;;21.65;100.00;100679.97;10390942;28;20062;-80
2023/09/20 05:22:19;;;;;;;2.13;0.35;;;;;;;21.10;100.00;100684.66;10358682;28;20038;-80
2023/09/20 05:27:21;;;;;;;0.03;0.03;;;;;;;21.40;100.00;100683.97;10374759;28;20073;-80
2023/09/20 05:32:23;;;;;;;4.82;0.28;;;;;;;21.21;100.00;100682.69;10374262;28;20140;-78
2023/09/20 05:37:25;;;;;;;0.05;0.05;;;;;;;21.09;100.00;100673.34;10367405;28;20052;-79
2023/09/20 05:42:28;;;;;;;2.97;0.30;;;;;;;20.96;100.00;100682.34;10369981;28;20132;-79
2023/09/20 05:47:29;;;;;;;0.15;0.15;;;;;;;20.72;100.00;100674.06;10381531;28;20054;-81
2023/09/20 05:52:32;;;;;;;1.05;0.40;;;;;;;21.04;100.00;100654.22;10368158;28;20053;-80
2023/09/20 05:57:34;;;;;;;0.00;0.00;;;;;;;21.05;100.00;100674.28;10388187;28;20104;-80
2023/09/20 06:02:35;;;;;;;0.28;0.20;;;;;;;21.62;100.00;100661.69;10389209;28;20046;-79
2023/09/20 06:07:40;;;;;;;0.00;0.00;;;;;;;21.29;100.00;100658.91;10372900;28;20382;-79
2023/09/20 06:12:41;;;;;;;0.20;0.13;;;;;;;21.59;100.00;100656.50;10355665;28;20727;-79
2023/09/20 06:17:47;;;;;;;0.32;0.05;;;;;;;21.91;100.00;100662.75;10370874;28;20092;-80
2023/09/20 06:22:49;;;;;;;0.57;0.47;;;;;;;22.39;100.00;100665.00;10372087;28;20588;-79
2023/09/20 06:27:53;;;;;;;1.75;0.80;;;;;;;22.27;100.00;100665.31;10380968;28;20045;-81
2023/09/20 06:32:55;;;;;;;0.10;0.10;;;;;;;21.67;100.00;100649.34;10351028;28;20145;-79
2023/09/20 06:37:58;;;;;;;1.05;0.30;;;;;;;21.85;100.00;100653.25;10386031;28;20049;-81
2023/09/20 06:43:03;;;;;;;1.02;0.32;;;;;;;22.41;100.00;100659.72;10389176;28;20509;-79
2023/09/20 06:48:06;;;;;;;0.10;0.10;;;;;;;22.80;100.00;100655.09;10372132;28;20045;-79
2023/09/20 06:53:08;;;;;;;0.10;0.10;;;;;;;22.05;100.00;100654.50;10388680;28;20105;-80
2023/09/20 06:58:10;;;;;;;0.50;0.22;;;;;;;23.21;100.00;100646.03;10384180;28;20046;-79
2023/09/20 07:03:21;;;;;;;0.32;0.25;;;;;;;22.66;100.00;100646.78;10387324;28;20129;-79
2023/09/20 07:08:23;;;;;;;0.10;0.10;;;;;;;22.69;100.00;100646.66;10388659;28;20048;-79
2023/09/20 07:13:26;;;;;;;0.35;0.30;;;;;;;22.66;100.00;100654.66;10394689;28;20423;-79
2023/09/20 07:18:28;;;;;;;0.22;0.22;;;;;;;22.77;100.00;100655.19;10373697;28;20457;-79
2023/09/20 07:23:30;;;;;;;1.00;0.43;;;;;;;23.32;100.00;100643.97;10371991;28;20041;-80
2023/09/20 07:28:32;;;;;;;0.10;0.10;;;;;;;23.88;100.00;100639.50;10388430;28;20076;-81
2023/09/20 07:33:33;;;;;;;0.40;0.22;;;;;;;23.19;100.00;100640.00;10355259;28;20128;-79
2023/09/20 07:38:36;;;;;;;0.15;0.10;;;;;;;22.99;100.00;100638.78;10390088;28;20073;-79
2023/09/20 07:43:43;;;;;;;0.10;0.10;;;;;;;23.80;100.00;100631.88;10385628;28;20058;-79
2023/09/20 07:48:50;;;;;;;0.15;0.15;;;;;;;23.91;100.00;100635.00;10341073;28;20488;-79
2023/09/20 07:53:54;;;;;;;0.20;0.10;;;;;;;24.42;100.00;100639.44;10366346;28;20504;-79
2023/09/20 07:58:56;;;;;;;1.52;0.32;;;;;;;23.63;100.00;100639.47;10372962;28;20557;-79
2023/09/20 08:03:59;;;;;;;0.10;0.10;;;;;;;23.83;100.00;100636.19;10380563;28;20053;-78
2023/09/20 08:09:03;;;;;;;0.10;0.10;;;;;;;24.69;100.00;100625.28;10365213;28;20046;-79
2023/09/20 08:14:05;;;;;;;0.30;0.20;;;;;;;22.98;100.00;100621.31;10379302;28;20527;-78
2023/09/20 08:19:16;;;;;;;0.03;0.03;;;;;;;23.67;100.00;100636.69;10379436;28;20120;-79
2023/09/20 09:01:46;;;;;;;0.90;0.43;;;;;;;24.11;100.00;100661.56;10371030;28;20520;-80
2023/09/20 09:06:48;;;;;;;2.15;1.00;;;;;;;24.10;100.00;100663.34;10374197;28;20116;-78
2023/09/20 09:11:49;;;;;;;0.15;0.15;;;;;;;23.66;100.00;100661.25;10383508;28;20806;-79
2023/09/20 09:17:00;;;;;;;0.38;0.10;;;;;;;23.57;100.00;100667.69;10369807;28;20054;-79
2023/09/20 09:22:03;;;;;;;0.47;0.30;;;;;;;23.74;100.00;100664.50;10364460;28;20049;-79
2023/09/20 09:27:06;;;;;;;1.70;0.50;;;;;;;23.76;100.00;100669.72;10393395;28;20132;-80
2023/09/20 09:32:08;;;;;;;0.35;0.30;;;;;;;23.75;100.00;100668.00;10371763;28;20038;-78
2023/09/20 09:37:12;;;;;;;2.38;0.98;;;;;;;23.72;100.00;100668.94;10362424;28;20100;-78
2023/09/20 09:42:24;;;;;;;0.20;0.10;;;;;;;23.56;100.00;100657.22;10370850;28;20045;-79
2023/09/20 09:47:25;;;;;;;0.68;0.52;;;;;;;24.25;100.00;100664.56;10388876;28;20049;-80
2023/09/20 09:52:29;;;;;;;0.00;0.00;;;;;;;24.84;100.00;100657.22;10381850;28;20445;-78
2023/09/20 09:57:30;;;;;;;0.45;0.20;;;;;;;24.64;100.00;100637.72;10350764;28;20433;-77
2023/09/20 10:02:35;;;;;;;0.65;0.32;;;;;;;24.74;100.00;100634.78;10384068;28;20042;-79
2023/09/20 10:07:40;;;;;;;1.38;0.93;;;;;;;24.32;100.00;100633.66;10367068;28;20049;-78
2023/09/20 10:12:46;;;;;;;0.17;0.17;;;;;;;25.48;100.00;100632.78;10369436;28;20532;-78
2023/09/20 10:17:52;;;;;;;0.57;0.45;;;;;;;25.05;100.00;100625.72;10368684;28;20052;-79
2023/09/20 10:22:54;;;;;;;0.52;0.52;;;;;;;24.42;100.00;100639.44;10385412;28;20050;-79
2023/09/20 10:27:55;;;;;;;0.00;0.00;;;;;;;24.62;100.00;100621.13;10368049;28;20060;-79
2023/09/20 10:32:59;;;;;;;0.75;0.45;;;;;;;24.56;100.00;100634.53;10384595;28;20048;-81
2023/09/20 10:38:04;;;;;;;0.30;0.10;;;;;;;25.16;100.00;100618.22;10365483;28;20049;-79
2023/09/20 10:43:06;;;;;;;0.63;0.10;;;;;;;25.15;100.00;100624.41;10367609;28;20060;-78
2023/09/20 10:48:12;;;;;;;0.10;0.10;;;;;;;24.83;100.00;100630.03;10351648;28;20049;-79
2023/09/20 10:53:22;;;;;;;0.20;0.20;;;;;;;25.52;100.00;100643.22;10371774;28;20503;-79
2023/09/20 10:58:27;;;;;;;0.52;0.28;;;;;;;25.76;100.00;100628.13;10374855;28;20436;-79
2023/09/20 11:03:29;;;;;;;0.00;0.00;;;;;;;25.79;100.00;100625.38;10354204;28;20579;-78
2023/09/20 11:08:31;;;;;;;1.45;0.45;;;;;;;26.19;100.00;100613.13;10366062;28;20045;-78
2023/09/20 11:13:35;;;;;;;0.17;0.00;;;;;;;26.31;100.00;100605.59;10371908;28;20049;-79
2023/09/20 11:18:38;;;;;;;0.05;0.05;;;;;;;26.22;100.00;100607.72;10349706;28;20054;-79
2023/09/20 11:23:40;;;;;;;0.60;0.17;;;;;;;26.29;100.00;100588.03;10357078;28;20145;-78
2023/09/20 11:28:42;;;;;;;0.00;0.00;;;;;;;26.52;100.00;100594.03;10347171;28;20425;-78
2023/09/20 11:33:44;;;;;;;0.28;0.13;;;;;;;26.62;100.00;100588.34;10383199;28;20048;-79
2023/09/20 11:38:46;;;;;;;0.55;0.55;;;;;;;27.26;100.00;100573.00;10376086;28;20358;-78
2023/09/20 11:43:48;;;;;;;0.55;0.20;;;;;;;27.10;100.00;100579.03;10358170;28;20057;-79
2023/09/20 11:48:49;;;;;;;0.17;0.13;;;;;;;26.91;100.00;100577.28;10374276;28;20041;-78
2023/09/20 11:53:52;;;;;;;0.00;0.00;;;;;;;26.59;100.00;100568.19;10391259;28;20073;-80
2023/09/20 11:58:54;;;;;;;0.63;0.47;;;;;;;26.75;100.00;100573.63;10355052;28;20045;-79
2023/09/20 12:03:56;;;;;;;0.22;0.03;;;;;;;27.00;100.00;100562.75;10383457;28;20049;-79
2023/09/20 12:09:01;;;;;;;0.00;0.00;;;;;;;27.79;100.00;100565.94;10356728;28;20042;-79
2023/09/20 12:14:02;;;;;;;0.00;0.00;;;;;;;26.69;100.00;100573.91;10383241;28;20516;-80
2023/09/20 12:19:04;;;;;;;0.10;0.10;;;;;;;26.74;100.00;100567.47;10372792;28;20104;-79
2023/09/20 12:24:06;;;;;;;0.10;0.10;;;;;;;26.94;100.00;100552.50;10391982;28;20045;-77
2023/09/20 12:29:08;;;;;;;0.08;0.05;;;;;;;25.90;100.00;100549.25;10392583;28;20401;-78
2023/09/20 12:34:10;;;;;;;0.00;0.00;;;;;;;26.70;100.00;100543.91;10394200;28;20060;-79
2023/09/20 12:39:12;;;;;;;0.00;0.00;;;;;;;27.21;100.00;100534.44;10388704;28;20053;-78
2023/09/20 12:44:14;;;;;;;1.08;0.57;;;;;;;26.69;100.00;100537.78;10371677;28;20521;-79
2023/09/20 12:49:16;;;;;;;0.20;0.00;;;;;;;26.38;100.00;100543.66;10372122;28;20042;-78
2023/09/20 12:54:17;;;;;;;0.00;0.00;;;;;;;26.28;100.00;100544.06;10358165;28;20056;-80
2023/09/20 12:59:19;;;;;;;0.17;0.03;;;;;;;26.63;100.00;100538.06;10360084;28;20050;-79
2023/09/20 13:04:21;;;;;;;0.03;0.03;;;;;;;25.96;100.00;100548.97;10373044;28;20498;-78
2023/09/20 13:09:23;;;;;;;0.20;0.10;;;;;;;26.63;100.00;100526.63;10375997;28;20110;-79
2023/09/20 13:14:24;;;;;;;0.45;0.20;;;;;;;26.38;100.00;100533.09;10374277;28;20069;-79
2023/09/20 13:19:26;;;;;;;0.55;0.10;;;;;;;27.09;100.00;100524.44;10374768;28;20081;-79
2023/09/20 13:24:29;;;;;;;0.00;0.00;;;;;;;25.99;100.00;100516.28;10370645;28;20038;-80
2023/09/20 13:29:31;;;;;;;0.05;0.05;;;;;;;26.51;100.00;100505.16;10361695;28;20034;-79
2023/09/20 13:34:32;;;;;;;0.00;0.00;;;;;;;26.69;100.00;100506.06;10367885;28;20481;-77
2023/09/20 13:39:42;;;;;;;0.00;0.00;;;;;;;26.07;100.00;100518.59;10353747;28;20050;-78
2023/09/20 13:44:45;;;;;;;0.00;0.00;;;;;;;26.32;100.00;100496.41;10364939;28;20054;-78
2023/09/20 13:49:50;;;;;;;0.40;0.08;;;;;;;26.27;100.00;100492.19;10370114;28;20061;-79
2023/09/20 13:54:52;;;;;;;0.10;0.00;;;;;;;26.20;100.00;100493.38;10368672;28;20052;-79
2023/09/20 13:59:54;;;;;;;0.10;0.10;;;;;;;26.12;100.00;100491.13;10376509;28;20045;-79
2023/09/20 14:04:56;;;;;;;0.00;0.00;;;;;;;25.93;100.00;100490.19;10385434;28;20060;-79
2023/09/20 14:09:58;;;;;;;0.20;0.20;;;;;;;26.69;100.00;100478.81;10351911;28;20405;-79
2023/09/20 14:14:59;;;;;;;0.40;0.22;;;;;;;26.89;100.00;100470.78;10384697;28;20128;-80
2023/09/20 14:20:08;;;;;;;2.45;0.05;;;;;;;26.24;100.00;100468.56;10368203;28;20512;-79
2023/09/20 14:25:12;;;;;;;0.05;0.00;;;;;;;26.12;100.00;100466.47;10367584;28;20046;-78
2023/09/20 14:30:18;;;;;;;0.00;0.00;;;;;;;26.62;100.00;100456.25;10380403;28;20440;-79
2023/09/20 14:35:21;;;;;;;0.05;0.05;;;;;;;26.64;100.00;100446.44;10379809;28;20077;-79
2023/09/20 14:40:24;;;;;;;0.00;0.00;;;;;;;26.23;100.00;100448.38;10383736;28;20046;-78
2023/09/20 14:45:29;;;;;;;0.65;0.20;;;;;;;25.81;100.00;100444.09;10383298;28;20057;-79
2023/09/20 14:50:33;;;;;;;1.13;0.43;;;;;;;25.92;100.00;100435.69;10366216;28;20050;-78
2023/09/20 14:55:36;;;;;;;0.60;0.17;;;;;;;26.48;100.00;100433.97;10359883;28;20081;-79
2023/09/20 15:00:38;;;;;;;0.05;0.05;;;;;;;26.16;100.00;100436.38;10354131;28;20053;-78
2023/09/20 15:05:41;;;;;;;0.25;0.10;;;;;;;26.28;100.00;100435.81;10381570;28;20049;-78
2023/09/20 15:10:43;;;;;;;0.00;0.00;;;;;;;26.51;100.00;100425.91;10369565;28;20096;-78
2023/09/20 15:15:45;;;;;;;0.30;0.10;;;;;;;26.16;100.00;100439.03;10362645;28;20144;-79
2023/09/20 15:20:48;;;;;;;0.28;0.00;;;;;;;26.62;100.00;100429.84;10368908;28;20046;-78
2023/09/20 15:25:50;;;;;;;0.00;0.00;;;;;;;26.56;100.00;100430.97;10379510;28;20078;-78
2023/09/20 15:30:51;;;;;;;0.55;0.25;;;;;;;26.16;100.00;100439.03;10363400;28;20042;-78
2023/09/20 15:36:05;;;;;;;0.00;0.00;;;;;;;26.00;100.00;100427.44;10386206;28;20049;-78
2023/09/20 15:41:09;;;;;;;0.03;0.00;;;;;;;25.72;100.00;100429.53;10350326;28;20052;-79
2023/09/20 15:46:13;;;;;;;0.00;0.00;;;;;;;25.65;100.00;100434.22;10368074;28;20124;-78
2023/09/20 15:51:15;;;;;;;0.73;0.05;;;;;;;25.74;100.00;100435.63;10357569;28;20456;-78
2023/09/20 15:56:17;;;;;;;0.00;0.00;;;;;;;25.66;100.00;100422.75;10370252;28;20046;-78
2023/09/20 16:01:19;;;;;;;0.32;0.10;;;;;;;25.81;100.00;100418.59;10369981;28;20084;-78
2023/09/20 16:06:21;;;;;;;0.10;0.00;;;;;;;25.73;100.00;100404.88;10384474;28;20085;-78
2023/09/20 16:11:22;;;;;;;0.10;0.10;;;;;;;25.27;100.00;100412.16;10378140;28;20061;-78
2023/09/20 16:16:24;;;;;;;0.00;0.00;;;;;;;25.39;100.00;100408.16;10361968;28;20105;-78
2023/09/20 16:21:26;;;;;;;0.00;0.00;;;;;;;25.56;100.00;100403.00;10373168;28;20117;-78
2023/09/20 16:26:28;;;;;;;0.25;0.15;;;;;;;25.52;100.00;100401.41;10360372;28;20138;-78
2023/09/20 16:31:31;;;;;;;0.03;0.03;;;;;;;25.61;100.00;100395.75;10371700;28;20042;-78
2023/09/20 16:36:33;;;;;;;0.00;0.00;;;;;;;25.53;100.00;100381.19;10374898;28;20054;-78
2023/09/20 16:41:39;;;;;;;0.10;0.10;;;;;;;25.97;100.00;100386.22;10376247;28;20045;-78
2023/09/20 16:46:41;;;;;;;0.38;0.30;;;;;;;25.32;100.00;100374.13;10392565;28;20069;-78
2023/09/20 16:51:43;;;;;;;0.00;0.00;;;;;;;25.59;100.00;100373.00;10377975;28;20034;-77
2023/09/20 16:56:44;;;;;;;0.77;0.43;;;;;;;25.18;100.00;100372.09;10375281;28;20042;-77
2023/09/20 17:01:46;;;;;;;0.00;0.00;;;;;;;25.35;100.00;100358.16;10359205;28;20073;-77
2023/09/20 17:06:48;;;;;;;0.05;0.05;;;;;;;25.65;100.00;100349.81;10386292;28;20474;-78
2023/09/20 17:11:50;;;;;;;2.47;0.45;;;;;;;25.72;100.00;100352.19;10372991;28;20457;-78
2023/09/20 17:16:52;;;;;;;0.20;0.10;;;;;;;25.63;100.00;100346.41;10391584;28;20050;-78
2023/09/20 17:21:54;;;;;;;0.00;0.00;;;;;;;25.59;100.00;100338.72;10374578;28;20495;-78
2023/09/20 17:26:56;;;;;;;0.00;0.00;;;;;;;25.31;100.00;100321.50;10374225;28;20074;-78
2023/09/20 17:31:58;;;;;;;0.22;0.20;;;;;;;25.26;100.00;100316.41;10370044;28;20065;-78
2023/09/20 17:37:01;;;;;;;0.45;0.15;;;;;;;25.22;100.00;100308.72;10390668;28;20061;-77
2023/09/20 17:42:05;;;;;;;0.05;0.03;;;;;;;25.43;100.00;100312.19;10373984;28;20034;-77
2023/09/20 17:47:07;;;;;;;0.00;0.00;;;;;;;25.02;100.00;100311.31;10351486;28;20045;-77
2023/09/20 17:52:11;;;;;;;0.10;0.08;;;;;;;25.18;100.00;100314.09;10389516;28;20052;-78
2023/09/20 17:57:12;;;;;;;0.08;0.08;;;;;;;25.12;100.00;100318.81;10371758;28;20049;-77
2023/09/20 18:02:15;;;;;;;0.00;0.00;;;;;;;24.80;100.00;100313.16;10359492;28;20052;-77
2023/09/20 18:07:16;;;;;;;0.00;0.00;;;;;;;25.19;100.00;100314.97;10373184;28;20058;-77
2023/09/20 18:12:18;;;;;;;0.00;0.00;;;;;;;25.16;100.00;100305.44;10379592;28;20402;-77
2023/09/20 18:17:20;;;;;;;0.00;0.00;;;;;;;25.36;100.00;100308.94;10373085;28;20402;-77
2023/09/20 18:22:22;;;;;;;0.05;0.03;;;;;;;25.00;100.00;100318.41;10383599;28;20466;-77
2023/09/20 18:27:24;;;;;;;0.10;0.08;;;;;;;25.23;100.00;100313.91;10363199;28;20117;-77
2023/09/20 18:32:26;;;;;;;0.00;0.00;;;;;;;25.21;100.00;100307.84;10362633;28;20054;-77
2023/09/20 18:37:28;;;;;;;0.65;0.10;;;;;;;24.96;100.00;100313.34;10360768;28;20053;-77
2023/09/20 18:42:29;;;;;;;0.10;0.08;;;;;;;24.88;100.00;100311.06;10364276;28;20045;-77
2023/09/20 18:47:31;;;;;;;0.90;0.57;;;;;;;24.52;100.00;100306.41;10358344;28;20054;-77
2023/09/20 18:52:46;;;;;;;0.00;0.00;;;;;;;24.63;100.00;100296.25;10366975;28;20045;-77
2023/09/20 18:57:50;;;;;;;0.00;0.00;;;;;;;24.08;100.00;100302.03;10348854;28;20057;-77
2023/09/20 19:02:54;;;;;;;0.30;0.30;;;;;;;24.22;100.00;100296.22;10371870;28;20054;-77
2023/09/20 19:07:55;;;;;;;0.28;0.17;;;;;;;24.31;100.00;100305.50;10364948;28;20412;-77
2023/09/20 19:12:58;;;;;;;0.82;0.60;;;;;;;24.24;100.00;100299.63;10378203;28;20046;-77
2023/09/20 19:18:01;;;;;;;1.08;0.28;;;;;;;24.14;100.00;100303.56;10371666;28;20050;-77
2023/09/20 19:23:06;;;;;;;0.20;0.20;;;;;;;24.07;100.00;100297.69;10378715;28;20053;-77
2023/09/20 19:28:08;;;;;;;0.00;0.00;;;;;;;24.13;100.00;100299.22;10363342;28;20054;-77
2023/09/20 19:33:09;;;;;;;0.00;0.00;;;;;;;24.17;100.00;100292.91;10370947;28;20046;-77
2023/09/20 19:38:11;;;;;;;0.15;0.15;;;;;;;24.17;100.00;100293.78;10354356;28;20505;-78
2023/09/20 19:43:13;;;;;;;0.00;0.00;;;;;;;24.43;100.00;100289.19;10353571;28;20045;-78
2023/09/20 19:48:16;;;;;;;0.05;0.05;;;;;;;24.38;100.00;100291.19;10386876;28;20062;-78
2023/09/20 19:53:18;;;;;;;0.00;0.00;;;;;;;24.06;100.00;100283.69;10371184;28;20042;-78
2023/09/20 19:58:22;;;;;;;0.30;0.17;;;;;;;24.12;100.00;100284.34;10360249;28;20405;-77
2023/09/20 20:03:25;;;;;;;0.32;0.30;;;;;;;24.31;100.00;100290.56;10375526;28;20132;-77
2023/09/20 20:08:26;;;;;;;0.20;0.10;;;;;;;24.46;100.00;100283.81;10378136;28;20049;-78
2023/09/20 20:13:28;;;;;;;0.10;0.00;;;;;;;24.56;100.00;100279.00;10361232;28;20120;-78
2023/09/20 20:18:30;;;;;;;1.17;0.20;;;;;;;24.27;100.00;100273.19;10374589;28;20089;-78
2023/09/20 20:23:32;;;;;;;0.08;0.08;;;;;;;24.30;100.00;100266.94;10391990;28;20050;-77
2023/09/20 20:28:37;;;;;;;0.03;0.03;;;;;;;24.11;100.00;100264.22;10391533;28;20795;-82
2023/09/20 20:33:39;;;;;;;0.10;0.08;;;;;;;24.52;100.00;100256.38;10365194;28;20060;-83
2023/09/20 20:38:41;;;;;;;0.55;0.13;;;;;;;24.11;100.00;100251.94;10389692;28;20136;-82
2023/09/20 20:43:43;;;;;;;0.20;0.13;;;;;;;24.33;100.00;100236.09;10373974;28;20050;-82
2023/09/20 20:48:45;;;;;;;0.05;0.00;;;;;;;24.31;100.00;100227.38;10370973;28;20060;-83
2023/09/20 20:53:47;;;;;;;0.22;0.10;;;;;;;24.23;100.00;100219.00;10379378;28;20073;-82
2023/09/20 20:58:49;;;;;;;0.22;0.22;;;;;;;23.93;100.00;100211.44;10379011;28;20124;-83
2023/09/20 21:03:53;;;;;;;0.05;0.05;;;;;;;24.08;100.00;100192.41;10393929;28;20140;-83
2023/09/20 21:08:55;;;;;;;0.10;0.05;;;;;;;23.83;100.00;100189.88;10369489;28;20041;-82
2023/09/20 21:13:58;;;;;;;0.05;0.03;;;;;;;23.88;100.00;100182.66;10363475;28;20057;-83
2023/09/20 21:19:00;;;;;;;0.65;0.28;;;;;;;23.95;100.00;100166.66;10372952;28;20081;-83
2023/09/20 21:24:04;;;;;;;0.20;0.20;;;;;;;24.13;100.00;100154.50;10388514;28;20512;-83
2023/09/20 21:29:06;;;;;;;0.00;0.00;;;;;;;24.12;100.00;100148.41;10374057;28;20516;-84
2023/09/20 21:34:08;;;;;;;0.35;0.00;;;;;;;24.46;100.00;100141.66;10373746;28;20042;-83
2023/09/20 21:39:10;;;;;;;0.00;0.00;;;;;;;24.55;100.00;100141.25;10389249;28;20508;-83
2023/09/20 21:44:12;;;;;;;0.00;0.00;;;;;;;24.32;100.00;100129.06;10377664;28;20050;-84
2023/09/20 21:49:14;;;;;;;0.22;0.03;;;;;;;24.26;100.00;100131.97;10350782;28;20129;-83
2023/09/20 21:54:16;;;;;;;0.47;0.05;;;;;;;24.34;100.00;100124.59;10381406;28;20056;-83
2023/09/20 21:59:17;;;;;;;0.85;0.30;;;;;;;23.99;100.00;100116.47;10371476;28;20049;-83
2023/09/20 22:04:19;;;;;;;0.00;0.00;;;;;;;24.13;100.00;100117.66;10371997;28;20258;-83
2023/09/20 22:09:21;;;;;;;0.20;0.20;;;;;;;24.15;100.00;100115.81;10367659;28;20049;-83
2023/09/20 22:14:23;;;;;;;0.00;0.00;;;;;;;23.99;100.00;100116.47;10373941;28;20755;-82
2023/09/20 22:19:29;;;;;;;0.35;0.32;;;;;;;23.87;100.00;100115.19;10372757;28;20041;-83
2023/09/20 22:24:31;;;;;;;0.20;0.10;;;;;;;24.01;100.00;100114.66;10373279;28;20168;-83
2023/09/20 22:29:36;;;;;;;0.43;0.15;;;;;;;24.03;100.00;100110.16;10371719;28;20042;-83
2023/09/20 22:34:38;;;;;;;0.00;0.00;;;;;;;24.02;100.00;100111.06;10371618;28;20478;-83
2023/09/20 22:39:40;;;;;;;0.00;0.00;;;;;;;24.34;100.00;100100.06;10372277;28;20137;-83
2023/09/20 22:44:42;;;;;;;0.00;0.00;;;;;;;23.92;100.00;100093.94;10353833;28;20132;-83
2023/09/20 22:49:43;;;;;;;0.00;0.00;;;;;;;24.38;100.00;100081.44;10369746;28;20050;-83
2023/09/20 22:54:48;;;;;;;0.13;0.10;;;;;;;24.06;100.00;100073.19;10378586;28;20050;-83
2023/09/20 22:59:50;;;;;;;0.10;0.10;;;;;;;24.26;100.00;100075.88;10381907;28;20058;-83
2023/09/20 23:04:56;;;;;;;0.30;0.30;;;;;;;23.86;100.00;100063.50;10354361;28;20137;-83
2023/09/20 23:09:58;;;;;;;0.00;0.00;;;;;;;24.02;100.00;100073.41;10385441;28;20066;-83
2023/09/20 23:15:01;;;;;;;0.00;0.00;;;;;;;24.12;100.00;100060.69;10385918;28;20124;-82
2023/09/20 23:20:05;;;;;;;0.00;0.00;;;;;;;24.48;100.00;100055.56;10369900;28;20073;-83
2023/09/20 23:25:10;;;;;;;0.00;0.00;;;;;;;24.31;100.00;100051.03;10353470;28;20409;-82
2023/09/20 23:30:12;;;;;;;0.38;0.10;;;;;;;24.37;100.00;100042.88;10372501;28;20096;-83
2023/09/20 23:35:15;;;;;;;0.22;0.20;;;;;;;24.06;100.00;100039.00;10375178;28;20054;-83